Aérodrome :
LOGIN :

S'inscrire | Disclaimer

   EN    FR    IT 

 










Légende :    VFR   VFR Marginal   IFR   IFR Intensif   IFR Très Intensif
Visi : 
Plafond : 
>= 8 km
>= 3000ft
5 à 8 km
1000 à 3000 ft
1500m à 5 km
500 à 1000 ft
800 à 1500m
200 à 500 ft
< 800m
< 200 ft
Symboles :   Orages  Brouillard  Fortes neiges  Fortes précipitations  Vent > 20 kt
SIGMETs :   Divers  Orages  Givrage  Turbulence  Onde Orograph.  Cendres Volcan.






- Altitude de l'aérodrome : 41 ft


LIRE - Pratica di Mare Air Base Pomezia

DERNIER METAR :
  • 021255Z 22005KT 9999 FEW050 12/03 Q1014 RMK SCT VIS MIN 9999 WIND THR13 24005KT WIND THR31 22005KT BLU

METARs EXPIRÉS :
  • 021155Z 22004KT 9999 FEW020 BKN040 11/04 Q1014 RMK BKN VIS MIN 9999 WIND THR13 21005KT WIND THR31 24005KT BLU
  • 021055Z 21004KT 9999 FEW020 BKN040 11/05 Q1014 RMK BKN VIS MIN 9999 WIND THR13 21005KT WIND THR31 16006KT BLU

TAF TAF LIRE
Valide du 02 à 12h jusqu'au 02 à 21h UTC


021100Z 0212/0221 18010KT 9999 FEW020 BKN040
BECMG 0216/0218 VRB05KT



MET'MAP, la Météo Aéronautique d'un coup d'oeil ! - Copyright ORBIFLY Décembre 2007 - Disclaimer

ORBIFLY MET'MAP TEAM :

Programmation & Développement : Alexandra Zaïnal
Sur une idée originale de : Baudouin d'Aumeries
Assistance à la programmation : Marc-Olivier Méhu
Soutien technique & logistique : Manuel Goepfert

Contact : metmap@orbifly.com




SOURCES & CREDITS :

   NOAA